Terminal Aerodrome Forecast
Issued by NWS Tiyan, Guam

Home | Current Version | Previous Version | Text Only | Print | Product List | Glossary On
Versions: 1 2 3 4 5 6 7 8 9 10 11 12 13 14 15 16 17 18 19 20 21 22 23 24 25
000
FTPQ31 PGUM 252300
TAFPQ
TAF
PGUM 252339Z 2600/2706 07014KT P6SM VCSH FEW020 BKN050
      TEMPO 2600/2601 5SM -SHRA SCT020 BKN040 OVC100
     FM260100 08013G25KT P6SM VCSH SCT018 BKN050
     FM260800 08010KT P6SM VCSH SCT020 SCT120=

USA.gov is the U.S. government's official web portal to all federal, state and local government web resources and services.